Time;durP1;ratioP1;P1;durP2;ratioP2;P2;SDS_P1;SDS_P2;PMS_P1;PMS_P2;Temp;Humidity;BMP_temperature;BMP_pressure;BME280_temperature;BME280_humidity;BME280_pressure;Samples;Min_cycle;Max_cycle;Signal;HPM_P1;HPM_P2
2022/09/15 00:00:01;;;;;;;;;;;15.10;99.90;;;;;;4965456;28;19973;-77
2022/09/15 00:02:27;;;;;;;;;;;15.10;99.90;;;;;;4964495;28;20416;-76
2022/09/15 00:04:52;;;;;;;;;;;15.10;99.90;;;;;;4966218;28;19926;-76
2022/09/15 00:07:19;;;;;;;;;;;15.20;99.90;;;;;;4983174;28;19968;-76
2022/09/15 00:09:44;;;;;;;;;;;15.10;99.90;;;;;;4984028;28;20663;-76
2022/09/15 00:12:10;;;;;;;;;;;15.10;99.90;;;;;;4984900;28;19977;-76
2022/09/15 00:14:35;;;;;;;;;;;15.10;99.90;;;;;;4984164;28;19929;-76
2022/09/15 00:17:01;;;;;;;;;;;15.10;99.90;;;;;;4981868;28;20397;-76
2022/09/15 00:19:26;;;;;;;;;;;15.10;99.90;;;;;;4984437;28;19952;-76
2022/09/15 00:21:52;;;;;;;;;;;15.10;99.90;;;;;;4984378;28;19925;-76
2022/09/15 00:24:17;;;;;;;;;;;15.10;99.90;;;;;;4984246;28;19926;-76
2022/09/15 00:26:43;;;;;;;;;;;15.20;99.90;;;;;;4983645;28;19930;-76
2022/09/15 00:29:09;;;;;;;;;;;15.10;99.90;;;;;;4983211;28;19981;-76
2022/09/15 00:31:34;;;;;;;;;;;15.10;99.90;;;;;;4982841;28;19925;-76
2022/09/15 00:34:01;;;;;;;;;;;15.10;99.90;;;;;;4984451;28;19933;-77
2022/09/15 00:36:27;;;;;;;;;;;15.10;99.90;;;;;;4979681;28;20165;-76
2022/09/15 00:38:53;;;;;;;;;;;15.10;99.90;;;;;;4984037;28;19932;-76
2022/09/15 00:41:19;;;;;;;;;;;15.10;99.90;;;;;;4984061;28;20317;-76
2022/09/15 00:43:59;;;;;;;;;;;15.10;99.90;;;;;;4984248;28;19926;-76
2022/09/15 00:46:27;;;;;;;;;;;15.10;99.90;;;;;;4981998;28;19926;-77
2022/09/15 00:49:12;;;;;;;;;;;15.10;99.90;;;;;;4983999;28;19929;-76
2022/09/15 00:51:48;;;;;;;;;;;15.10;99.90;;;;;;4983843;28;19940;-76
2022/09/15 00:54:15;;;;;;;;;;;15.10;99.90;;;;;;4984027;28;20023;-76
2022/09/15 00:56:42;;;;;;;;;;;15.10;99.90;;;;;;4983548;28;20860;-76
2022/09/15 00:59:10;;;;;;;;;;;15.10;99.90;;;;;;4984003;28;19929;-76
2022/09/15 01:01:35;;;;;;;;;;;15.10;99.90;;;;;;4982122;28;20368;-76
2022/09/15 01:04:01;;;;;;;;;;;15.10;99.90;;;;;;4982409;28;19937;-77
2022/09/15 01:06:34;;;;;;;;;;;15.10;99.90;;;;;;4970623;28;19926;-76
2022/09/15 01:11:25;;;;;;;;;;;15.10;99.90;;;;;;4990534;23;20006;-76
2022/09/15 01:13:51;;;;;;;;;;;15.10;99.90;;;;;;4983976;28;19965;-76
2022/09/15 01:16:16;;;;;;;;;;;15.10;99.90;;;;;;4982663;28;19930;-76
2022/09/15 01:18:42;;;;;;;;;;;15.10;99.90;;;;;;4983687;28;19926;-76
2022/09/15 01:21:07;;;;;;;;;;;15.10;99.90;;;;;;4982505;28;19926;-76
2022/09/15 01:23:41;;;;;;;;;;;15.10;99.90;;;;;;4983253;28;19926;-77
2022/09/15 01:26:31;;;;;;;;;;;15.10;99.90;;;;;;4983821;28;19956;-76
2022/09/15 01:29:08;;;;;;;;;;;15.10;99.90;;;;;;4984259;28;19996;-76
2022/09/15 01:33:02;;;;;;;;;;;15.00;99.90;;;;;;4981647;28;19925;-76
2022/09/15 01:34:32;;;;;;;;;;;15.00;99.90;;;;;;4982970;28;20023;-76
2022/09/15 01:37:01;;;;;;;;;;;15.00;99.90;;;;;;4983584;28;20543;-76
2022/09/15 01:39:29;;;;;;;;;;;15.00;99.90;;;;;;4986317;28;19973;-76
2022/09/15 01:41:57;;;;;;;;;;;15.00;99.90;;;;;;4986998;28;19926;-76
2022/09/15 01:44:35;;;;;;;;;;;15.00;99.90;;;;;;4987450;28;19980;-76
2022/09/15 01:47:08;;;;;;;;;;;15.00;99.90;;;;;;4986761;28;19929;-76
2022/09/15 01:49:37;;;;;;;;;;;15.00;99.90;;;;;;4985703;28;20020;-76
2022/09/15 01:52:03;;;;;;;;;;;15.00;99.90;;;;;;4987070;28;19973;-76
2022/09/15 01:54:31;;;;;;;;;;;15.00;99.90;;;;;;4987881;28;20023;-76
2022/09/15 01:56:57;;;;;;;;;;;15.00;99.90;;;;;;4975175;28;20565;-76
2022/09/15 01:59:22;;;;;;;;;;;15.00;99.90;;;;;;4968137;28;19926;-76
2022/09/15 02:01:56;;;;;;;;;;;15.00;99.90;;;;;;4965174;28;19933;-76
2022/09/15 02:04:31;;;;;;;;;;;14.90;99.90;;;;;;4967449;28;19926;-76
2022/09/15 02:07:01;;;;;;;;;;;14.90;99.90;;;;;;4966695;28;19926;-76
2022/09/15 02:09:33;;;;;;;;;;;14.90;99.90;;;;;;4967974;28;19926;-76
2022/09/15 02:12:07;;;;;;;;;;;14.90;99.90;;;;;;4966862;28;19928;-76
2022/09/15 02:14:42;;;;;;;;;;;14.90;99.90;;;;;;4967470;28;19926;-77
2022/09/15 02:17:13;;;;;;;;;;;14.90;99.90;;;;;;4966832;28;19927;-76
2022/09/15 02:19:40;;;;;;;;;;;14.90;99.90;;;;;;4967091;28;20011;-76
2022/09/15 02:22:22;;;;;;;;;;;14.90;99.90;;;;;;4967283;28;20364;-76
2022/09/15 02:24:58;;;;;;;;;;;14.90;99.90;;;;;;4967023;28;19972;-76
2022/09/15 02:27:26;;;;;;;;;;;14.90;99.90;;;;;;4967644;28;19926;-76
2022/09/15 02:29:53;;;;;;;;;;;14.90;99.90;;;;;;4966870;28;19926;-76
2022/09/15 02:32:22;;;;;;;;;;;15.00;99.90;;;;;;4965211;28;19936;-76
2022/09/15 02:34:50;;;;;;;;;;;14.90;99.90;;;;;;4968418;28;19926;-76
2022/09/15 02:37:17;;;;;;;;;;;14.90;99.90;;;;;;4986012;28;19980;-76
2022/09/15 02:39:45;;;;;;;;;;;14.90;99.90;;;;;;4986441;28;19933;-76
2022/09/15 02:42:11;;;;;;;;;;;14.90;99.90;;;;;;4984805;28;19926;-76
2022/09/15 02:44:36;;;;;;;;;;;14.90;99.90;;;;;;4986384;28;20391;-76
2022/09/15 02:47:02;;;;;;;;;;;14.90;99.90;;;;;;4985232;28;19988;-77
2022/09/15 02:49:28;;;;;;;;;;;14.90;99.90;;;;;;4984835;28;19922;-76
2022/09/15 02:51:54;;;;;;;;;;;14.90;99.90;;;;;;4984457;28;19929;-76
2022/09/15 02:54:19;;;;;;;;;;;15.00;99.90;;;;;;4986607;28;19983;-76
2022/09/15 02:56:46;;;;;;;;;;;14.90;99.90;;;;;;4973020;28;19968;-76
2022/09/15 02:59:12;;;;;;;;;;;15.00;99.90;;;;;;4972883;28;19926;-76
2022/09/15 03:01:37;;;;;;;;;;;15.00;99.90;;;;;;4983752;28;19925;-76
2022/09/15 03:04:03;;;;;;;;;;;15.00;99.90;;;;;;4968562;28;20645;-77
2022/09/15 03:06:33;;;;;;;;;;;15.00;99.90;;;;;;4986305;28;20269;-76
2022/09/15 03:08:59;;;;;;;;;;;15.00;99.90;;;;;;4985285;28;19933;-76
2022/09/15 03:11:25;;;;;;;;;;;15.00;99.90;;;;;;4985864;28;19926;-76
2022/09/15 03:13:58;;;;;;;;;;;15.00;99.90;;;;;;4985966;28;19972;-76
2022/09/15 03:16:24;;;;;;;;;;;15.00;99.90;;;;;;4983426;28;19929;-77
2022/09/15 03:18:50;;;;;;;;;;;15.00;99.90;;;;;;4985668;28;20155;-76
2022/09/15 03:21:16;;;;;;;;;;;14.90;99.90;;;;;;4985192;28;19925;-77
2022/09/15 03:23:41;;;;;;;;;;;14.90;99.90;;;;;;4985616;28;19930;-77
2022/09/15 03:26:08;;;;;;;;;;;14.90;99.90;;;;;;4985593;28;19949;-76
2022/09/15 03:28:34;;;;;;;;;;;14.90;99.90;;;;;;4984830;28;19932;-77
2022/09/15 03:30:59;;;;;;;;;;;14.90;99.90;;;;;;4965433;28;19926;-78
2022/09/15 03:33:25;;;;;;;;;;;14.90;99.90;;;;;;4965695;28;19948;-76
2022/09/15 03:35:51;;;;;;;;;;;14.80;99.90;;;;;;4965355;28;19926;-76
2022/09/15 03:38:17;;;;;;;;;;;14.90;99.90;;;;;;4964667;28;20102;-76
2022/09/15 03:40:42;;;;;;;;;;;14.90;99.90;;;;;;4964424;28;20028;-77
2022/09/15 03:43:09;;;;;;;;;;;14.90;99.90;;;;;;4966110;28;19926;-76
2022/09/15 03:45:36;;;;;;;;;;;14.90;99.90;;;;;;4964316;28;20308;-76
2022/09/15 03:48:04;;;;;;;;;;;14.90;99.90;;;;;;4965719;28;19930;-77
2022/09/15 03:50:30;;;;;;;;;;;14.90;99.90;;;;;;4965834;28;20273;-77
2022/09/15 03:52:55;;;;;;;;;;;14.90;99.90;;;;;;4965082;28;19930;-76
2022/09/15 03:55:21;;;;;;;;;;;14.90;99.90;;;;;;4969036;28;19976;-77
2022/09/15 03:57:46;;;;;;;;;;;14.90;99.90;;;;;;4984844;28;19926;-76
2022/09/15 04:00:12;;;;;;;;;;;14.80;99.90;;;;;;4983241;28;19926;-77
2022/09/15 04:02:38;;;;;;;;;;;14.80;99.90;;;;;;4984518;28;19933;-77
2022/09/15 04:05:04;;;;;;;;;;;14.90;99.90;;;;;;4985220;28;19929;-77
2022/09/15 04:07:29;;;;;;;;;;;14.80;99.90;;;;;;4983188;28;19926;-77
2022/09/15 04:09:55;;;;;;;;;;;14.80;99.90;;;;;;4985091;28;19933;-76
2022/09/15 04:12:21;;;;;;;;;;;14.80;99.90;;;;;;4984302;28;19926;-76
2022/09/15 04:14:46;;;;;;;;;;;14.80;99.90;;;;;;4982637;28;19925;-76
2022/09/15 04:17:11;;;;;;;;;;;14.80;99.90;;;;;;4984671;28;20034;-77
2022/09/15 04:19:37;;;;;;;;;;;14.80;99.90;;;;;;4983954;28;19929;-77
2022/09/15 04:22:03;;;;;;;;;;;14.90;99.90;;;;;;4983447;28;19928;-76
2022/09/15 04:24:28;;;;;;;;;;;14.80;99.90;;;;;;4984857;28;20028;-76
2022/09/15 04:26:54;;;;;;;;;;;14.80;99.90;;;;;;4983314;28;19973;-76
2022/09/15 04:29:19;;;;;;;;;;;14.80;99.90;;;;;;4965013;28;20032;-76
2022/09/15 04:31:45;;;;;;;;;;;14.80;99.90;;;;;;4995402;28;19926;-77
2022/09/15 04:34:11;;;;;;;;;;;14.80;99.90;;;;;;4964902;28;19922;-76
2022/09/15 04:36:37;;;;;;;;;;;14.80;99.90;;;;;;4964677;28;19926;-77
2022/09/15 04:39:04;;;;;;;;;;;14.80;99.90;;;;;;4965263;28;20267;-77
2022/09/15 04:41:32;;;;;;;;;;;14.80;99.90;;;;;;4964647;28;19928;-77
2022/09/15 04:43:58;;;;;;;;;;;14.80;99.90;;;;;;4965211;28;19926;-76
2022/09/15 04:46:24;;;;;;;;;;;14.80;99.90;;;;;;4965881;28;19933;-76
2022/09/15 04:48:50;;;;;;;;;;;14.80;99.90;;;;;;4967363;28;20008;-76
2022/09/15 04:51:17;;;;;;;;;;;14.80;99.90;;;;;;4967505;28;19926;-74
2022/09/15 04:53:43;;;;;;;;;;;14.80;99.90;;;;;;4968692;28;20004;-74
2022/09/15 04:56:16;;;;;;;;;;;14.80;99.90;;;;;;4988220;28;20012;-74
2022/09/15 04:58:47;;;;;;;;;;;14.80;99.90;;;;;;4981696;28;19979;-75
2022/09/15 05:01:13;;;;;;;;;;;14.80;99.90;;;;;;4976998;28;19965;-74
2022/09/15 05:03:39;;;;;;;;;;;14.80;99.90;;;;;;4974835;28;19922;-76
2022/09/15 05:06:08;;;;;;;;;;;14.80;99.90;;;;;;4980675;28;21290;-76
2022/09/15 05:08:33;;;;;;;;;;;14.80;99.90;;;;;;4988594;28;20639;-76
2022/09/15 05:11:00;;;;;;;;;;;14.80;99.90;;;;;;4978278;28;19929;-77
2022/09/15 05:13:26;;;;;;;;;;;14.80;99.90;;;;;;4981019;28;19926;-76
2022/09/15 05:15:51;;;;;;;;;;;14.80;99.90;;;;;;4975502;28;19933;-84
2022/09/15 05:18:17;;;;;;;;;;;14.80;99.90;;;;;;4980067;28;19965;-76
2022/09/15 05:20:43;;;;;;;;;;;14.80;99.90;;;;;;4988055;28;19925;-77
2022/09/15 05:23:09;;;;;;;;;;;14.80;99.90;;;;;;4994408;28;19926;-77
2022/09/15 05:25:34;;;;;;;;;;;14.90;99.90;;;;;;5000501;28;19925;-77
2022/09/15 05:28:00;;;;;;;;;;;14.80;99.90;;;;;;4984764;28;19982;-77
2022/09/15 05:30:25;;;;;;;;;;;14.90;99.90;;;;;;4980936;28;19933;-77
2022/09/15 05:32:51;;;;;;;;;;;14.80;99.90;;;;;;4975772;28;19930;-77
2022/09/15 05:35:17;;;;;;;;;;;14.90;99.90;;;;;;4968511;28;19926;-76
2022/09/15 05:37:43;;;;;;;;;;;14.90;99.90;;;;;;4967658;28;20307;-77
2022/09/15 05:40:08;;;;;;;;;;;14.90;99.90;;;;;;4982046;28;20801;-77
2022/09/15 05:42:34;;;;;;;;;;;14.90;99.90;;;;;;4990233;28;19926;-77
2022/09/15 05:44:59;;;;;;;;;;;14.90;99.90;;;;;;4991208;28;19949;-77
2022/09/15 05:47:25;;;;;;;;;;;14.90;99.90;;;;;;4975285;28;20328;-74
2022/09/15 05:49:52;;;;;;;;;;;14.90;99.90;;;;;;4973579;28;19926;-74
2022/09/15 05:52:18;;;;;;;;;;;14.90;99.90;;;;;;4971223;28;20448;-74
2022/09/15 05:54:43;;;;;;;;;;;14.90;99.90;;;;;;4971916;28;19977;-73
2022/09/15 05:57:09;;;;;;;;;;;14.90;99.90;;;;;;4981975;28;19933;-73
2022/09/15 05:59:37;;;;;;;;;;;14.90;99.90;;;;;;4978807;28;20388;-73
2022/09/15 06:02:03;;;;;;;;;;;14.90;99.90;;;;;;4981364;28;20017;-75
2022/09/15 06:04:28;;;;;;;;;;;14.90;99.90;;;;;;4983475;28;20013;-73
2022/09/15 06:06:53;;;;;;;;;;;14.90;99.90;;;;;;4983136;28;20037;-74
2022/09/15 06:09:19;;;;;;;;;;;14.90;99.90;;;;;;4982775;28;20450;-74
2022/09/15 06:11:44;;;;;;;;;;;14.90;99.90;;;;;;4982500;28;19926;-74
2022/09/15 06:14:12;;;;;;;;;;;14.90;99.90;;;;;;4966219;28;19926;-74
2022/09/15 06:16:38;;;;;;;;;;;15.00;99.90;;;;;;4980561;28;19925;-74
2022/09/15 06:19:04;;;;;;;;;;;15.00;99.90;;;;;;4963744;28;19933;-74
2022/09/15 06:21:30;;;;;;;;;;;15.00;99.90;;;;;;4962776;28;20203;-74
2022/09/15 06:23:57;;;;;;;;;;;15.00;99.90;;;;;;4965226;28;19926;-73
2022/09/15 06:26:23;;;;;;;;;;;15.00;99.90;;;;;;4966912;28;19926;-74
2022/09/15 06:28:50;;;;;;;;;;;15.00;99.90;;;;;;4967659;28;19933;-77
2022/09/15 06:31:15;;;;;;;;;;;14.90;99.90;;;;;;4967874;28;20088;-73
2022/09/15 06:33:49;;;;;;;;;;;14.90;99.90;;;;;;4985966;28;19926;-75
2022/09/15 06:36:15;;;;;;;;;;;14.90;99.90;;;;;;4985848;28;20020;-75
2022/09/15 06:38:41;;;;;;;;;;;14.90;99.90;;;;;;4985459;28;20016;-75
2022/09/15 06:41:07;;;;;;;;;;;14.90;99.90;;;;;;4985760;28;19948;-75
2022/09/15 06:43:33;;;;;;;;;;;14.90;99.90;;;;;;4985900;28;19921;-75
2022/09/15 06:46:06;;;;;;;;;;;14.90;99.90;;;;;;4983793;28;19949;-75
2022/09/15 06:48:32;;;;;;;;;;;15.00;99.90;;;;;;4985329;28;20028;-76
2022/09/15 06:50:59;;;;;;;;;;;15.00;99.90;;;;;;4985624;28;20029;-75
2022/09/15 06:53:26;;;;;;;;;;;15.00;99.90;;;;;;4985461;28;20324;-75
2022/09/15 06:55:52;;;;;;;;;;;15.00;99.90;;;;;;4985082;28;19968;-75
2022/09/15 06:58:17;;;;;;;;;;;14.90;99.90;;;;;;4984608;28;20234;-74
2022/09/15 07:00:43;;;;;;;;;;;15.00;99.90;;;;;;4982861;28;20022;-75
2022/09/15 07:03:08;;;;;;;;;;;15.00;99.90;;;;;;4973816;28;20379;-75
2022/09/15 07:05:34;;;;;;;;;;;15.00;99.90;;;;;;4965058;28;19965;-75
2022/09/15 07:07:59;;;;;;;;;;;15.00;99.90;;;;;;4964995;28;20468;-75
2022/09/15 07:10:25;;;;;;;;;;;15.00;99.90;;;;;;4965272;28;19926;-75
2022/09/15 07:12:50;;;;;;;;;;;15.00;99.90;;;;;;4964357;28;19926;-75
2022/09/15 07:15:16;;;;;;;;;;;15.10;99.90;;;;;;4963418;28;19926;-75
2022/09/15 07:17:41;;;;;;;;;;;15.10;99.90;;;;;;4964396;28;19930;-75
2022/09/15 07:20:08;;;;;;;;;;;15.10;99.90;;;;;;4979803;28;20360;-75
2022/09/15 07:22:33;;;;;;;;;;;15.10;99.90;;;;;;4970480;28;20365;-76
2022/09/15 07:24:59;;;;;;;;;;;15.10;99.90;;;;;;4973215;28;19977;-76
2022/09/15 07:27:30;;;;;;;;;;;15.10;99.90;;;;;;4973291;28;19929;-75
2022/09/15 07:29:56;;;;;;;;;;;15.10;99.90;;;;;;4973484;28;19926;-75
2022/09/15 07:32:21;;;;;;;;;;;15.10;99.90;;;;;;4972282;28;20716;-76
2022/09/15 07:34:47;;;;;;;;;;;15.00;99.90;;;;;;4973034;28;19926;-76
2022/09/15 07:37:12;;;;;;;;;;;15.00;99.90;;;;;;4972234;28;20289;-76
2022/09/15 07:39:38;;;;;;;;;;;15.00;99.90;;;;;;4973584;28;19930;-76
2022/09/15 07:42:03;;;;;;;;;;;14.90;99.90;;;;;;4972216;28;20391;-76
2022/09/15 07:44:29;;;;;;;;;;;15.00;99.90;;;;;;4964172;28;19926;-75
2022/09/15 07:46:54;;;;;;;;;;;15.00;99.90;;;;;;4965009;28;19934;-75
2022/09/15 07:49:20;;;;;;;;;;;15.10;99.90;;;;;;4964707;28;19998;-75
2022/09/15 07:51:45;;;;;;;;;;;15.20;99.90;;;;;;4964508;28;20281;-75
2022/09/15 07:54:11;;;;;;;;;;;15.20;99.90;;;;;;4964173;28;20436;-75
2022/09/15 07:56:36;;;;;;;;;;;15.40;99.90;;;;;;4962615;28;19922;-75
2022/09/15 07:59:01;;;;;;;;;;;15.50;99.90;;;;;;4978565;28;20142;-75
2022/09/15 08:01:27;;;;;;;;;;;15.60;99.90;;;;;;4963496;28;19926;-75
2022/09/15 08:03:53;;;;;;;;;;;15.70;99.90;;;;;;4964259;28;19957;-75
2022/09/15 08:06:19;;;;;;;;;;;15.70;99.90;;;;;;4964123;28;20036;-75
2022/09/15 08:08:45;;;;;;;;;;;15.80;99.90;;;;;;4964059;28;19919;-75
2022/09/15 08:11:13;;;;;;;;;;;15.70;99.90;;;;;;4962737;28;19926;-75
2022/09/15 08:13:39;;;;;;;;;;;15.80;99.90;;;;;;4962507;28;19933;-75
2022/09/15 08:16:09;;;;;;;;;;;15.80;99.90;;;;;;4963461;28;19926;-75
2022/09/15 08:18:34;;;;;;;;;;;15.80;99.90;;;;;;4962692;28;19936;-75
2022/09/15 08:21:05;;;;;;;;;;;15.80;99.90;;;;;;4964321;28;20005;-75
2022/09/15 08:23:30;;;;;;;;;;;15.80;99.90;;;;;;4962836;28;19932;-75
2022/09/15 08:25:56;;;;;;;;;;;15.90;99.90;;;;;;4963974;28;19926;-75
2022/09/15 08:28:22;;;;;;;;;;;15.90;99.90;;;;;;4963289;28;19932;-75
2022/09/15 08:30:47;;;;;;;;;;;16.00;99.90;;;;;;4962556;28;20401;-75
2022/09/15 08:33:13;;;;;;;;;;;16.00;99.90;;;;;;4964070;28;19926;-75
2022/09/15 08:35:38;;;;;;;;;;;16.00;99.90;;;;;;4974903;28;19929;-75
2022/09/15 08:38:03;;;;;;;;;;;16.00;99.90;;;;;;4982999;28;19926;-76
2022/09/15 08:40:32;;;;;;;;;;;16.00;99.90;;;;;;4972460;28;19926;-74
2022/09/15 08:43:00;;;;;;;;;;;16.10;99.90;;;;;;4963433;28;20380;-75
2022/09/15 08:45:28;;;;;;;;;;;16.10;99.90;;;;;;4971731;28;19930;-75
2022/09/15 08:47:57;;;;;;;;;;;16.10;99.90;;;;;;4972170;28;19926;-75
2022/09/15 08:50:28;;;;;;;;;;;16.10;99.90;;;;;;4971850;28;19926;-76
2022/09/15 08:53:17;;;;;;;;;;;16.10;99.90;;;;;;4970526;28;20013;-75
2022/09/15 08:55:50;;;;;;;;;;;16.20;99.90;;;;;;4967663;28;19965;-74
2022/09/15 08:58:20;;;;;;;;;;;16.20;99.90;;;;;;4972741;28;20384;-75
2022/09/15 09:00:50;;;;;;;;;;;16.20;99.90;;;;;;4970324;28;19937;-75
2022/09/15 09:03:21;;;;;;;;;;;16.20;99.90;;;;;;4971511;28;19926;-74
2022/09/15 09:06:06;;;;;;;;;;;16.20;99.90;;;;;;4970079;28;19926;-74
2022/09/15 09:08:31;;;;;;;;;;;16.30;99.90;;;;;;4969217;28;19934;-74
2022/09/15 09:11:02;;;;;;;;;;;16.30;99.90;;;;;;4970106;28;20368;-74
2022/09/15 09:13:33;;;;;;;;;;;16.30;99.90;;;;;;4971512;28;20003;-74
2022/09/15 09:16:26;;;;;;;;;;;16.40;99.90;;;;;;4969589;28;19922;-75
2022/09/15 09:19:02;;;;;;;;;;;16.40;99.90;;;;;;4972155;28;19926;-75
2022/09/15 09:21:28;;;;;;;;;;;16.60;99.90;;;;;;4971544;28;19925;-75
2022/09/15 09:23:53;;;;;;;;;;;16.60;99.90;;;;;;4971259;28;20005;-75
2022/09/15 09:26:19;;;;;;;;;;;16.70;99.90;;;;;;4975900;28;19929;-75
2022/09/15 09:28:51;;;;;;;;;;;16.70;99.90;;;;;;4981586;28;19925;-75
2022/09/15 09:31:21;;;;;;;;;;;16.70;99.90;;;;;;4987476;28;20383;-75
2022/09/15 09:34:11;;;;;;;;;;;16.70;99.90;;;;;;4981386;28;20439;-75
2022/09/15 09:36:36;;;;;;;;;;;16.80;99.90;;;;;;4972447;28;19934;-75
2022/09/15 09:39:02;;;;;;;;;;;16.90;99.90;;;;;;4963847;28;19926;-74
2022/09/15 09:41:37;;;;;;;;;;;16.90;99.90;;;;;;4964841;28;19974;-76
2022/09/15 09:44:08;;;;;;;;;;;16.90;99.90;;;;;;4961020;28;19942;-76
2022/09/15 09:46:33;;;;;;;;;;;17.00;99.90;;;;;;4963528;28;20301;-75
2022/09/15 09:49:21;;;;;;;;;;;17.10;99.90;;;;;;4964365;28;19926;-75
2022/09/15 09:51:51;;;;;;;;;;;17.10;99.90;;;;;;4962202;28;19926;-75
2022/09/15 09:54:19;;;;;;;;;;;17.10;99.90;;;;;;4963999;28;19973;-75
2022/09/15 09:56:48;;;;;;;;;;;17.20;99.90;;;;;;4961843;28;20411;-75
2022/09/15 09:59:36;;;;;;;;;;;17.20;99.90;;;;;;4963059;28;19966;-75
2022/09/15 10:02:14;;;;;;;;;;;17.30;99.90;;;;;;4967880;28;19952;-76
2022/09/15 10:04:53;;;;;;;;;;;17.30;99.90;;;;;;4971479;28;19965;-75
2022/09/15 10:07:25;;;;;;;;;;;17.30;99.90;;;;;;4986744;28;19937;-75
2022/09/15 10:09:55;;;;;;;;;;;17.30;99.90;;;;;;4984576;28;19929;-75
2022/09/15 10:12:31;;;;;;;;;;;17.30;99.90;;;;;;4985738;28;19930;-75
2022/09/15 10:14:59;;;;;;;;;;;17.30;99.90;;;;;;4980875;28;19926;-72
2022/09/15 10:17:42;;;;;;;;;;;17.30;99.90;;;;;;4974880;28;19930;-76
2022/09/15 10:20:27;;;;;;;;;;;17.40;99.90;;;;;;4974202;28;19922;-77
2022/09/15 10:23:01;;;;;;;;;;;17.40;99.90;;;;;;4970501;28;19991;-76
2022/09/15 10:25:28;;;;;;;;;;;17.30;99.90;;;;;;4980238;28;19973;-73
2022/09/15 10:28:00;;;;;;;;;;;17.30;99.90;;;;;;4979313;28;20380;-78
2022/09/15 10:30:25;;;;;;;;;;;17.20;99.90;;;;;;4973576;28;19984;-74
2022/09/15 10:32:51;;;;;;;;;;;17.20;99.90;;;;;;4982416;28;20008;-74
2022/09/15 10:35:17;;;;;;;;;;;17.20;99.90;;;;;;4982924;28;19957;-74
2022/09/15 10:37:55;;;;;;;;;;;17.20;99.90;;;;;;4976994;28;19933;-76
2022/09/15 10:40:34;;;;;;;;;;;17.20;99.90;;;;;;4974461;28;19930;-76
2022/09/15 10:42:59;;;;;;;;;;;17.10;99.90;;;;;;4984922;28;20399;-77
2022/09/15 10:45:28;;;;;;;;;;;17.10;99.90;;;;;;4978800;28;20021;-75
2022/09/15 10:47:56;;;;;;;;;;;17.10;99.90;;;;;;4983184;28;19967;-76
2022/09/15 10:50:24;;;;;;;;;;;17.10;99.90;;;;;;4968410;28;19922;-76
2022/09/15 10:53:00;;;;;;;;;;;17.10;99.90;;;;;;4984475;28;20404;-76
2022/09/15 10:55:48;;;;;;;;;;;17.20;99.90;;;;;;4965004;28;20381;-77
2022/09/15 10:58:20;;;;;;;;;;;17.20;99.90;;;;;;4973227;28;21451;-74
2022/09/15 11:01:00;;;;;;;;;;;17.30;99.90;;;;;;4965883;28;19930;-75
2022/09/15 11:03:38;;;;;;;;;;;17.30;99.90;;;;;;4980560;28;20459;-74
2022/09/15 11:06:24;;;;;;;;;;;17.30;99.90;;;;;;4985840;28;19926;-74
2022/09/15 11:08:57;;;;;;;;;;;17.30;99.90;;;;;;4978735;28;19930;-74
2022/09/15 11:11:41;;;;;;;;;;;17.40;99.90;;;;;;4975771;28;20001;-74
2022/09/15 11:14:30;;;;;;;;;;;17.40;99.90;;;;;;4965675;28;19926;-73
2022/09/15 11:17:05;;;;;;;;;;;17.40;99.90;;;;;;4982968;28;20400;-76
2022/09/15 11:19:49;;;;;;;;;;;17.30;99.90;;;;;;4982401;28;19956;-76
2022/09/15 11:22:21;;;;;;;;;;;17.10;99.90;;;;;;4983439;28;19933;-75
2022/09/15 11:24:48;;;;;;;;;;;17.00;99.90;;;;;;4984014;28;20392;-75
2022/09/15 11:27:14;;;;;;;;;;;17.00;99.90;;;;;;4984805;28;20076;-75
2022/09/15 11:29:39;;;;;;;;;;;17.00;99.90;;;;;;4983672;28;20021;-75
2022/09/15 11:32:09;;;;;;;;;;;17.00;99.90;;;;;;4984637;28;20234;-76
2022/09/15 11:34:40;;;;;;;;;;;17.10;99.90;;;;;;4981559;28;20064;-75
2022/09/15 11:37:12;;;;;;;;;;;17.10;99.90;;;;;;4965064;28;20385;-75
2022/09/15 11:39:43;;;;;;;;;;;17.20;99.90;;;;;;4965091;28;19933;-75
2022/09/15 11:42:13;;;;;;;;;;;17.30;99.90;;;;;;4965217;28;19926;-75
2022/09/15 11:44:40;;;;;;;;;;;17.30;99.90;;;;;;4963794;28;19933;-75
2022/09/15 11:47:24;;;;;;;;;;;17.40;99.90;;;;;;4964965;28;20349;-75
2022/09/15 11:49:53;;;;;;;;;;;17.40;99.90;;;;;;4964732;28;19957;-75
2022/09/15 11:52:31;;;;;;;;;;;17.30;99.90;;;;;;4964514;28;19952;-76
2022/09/15 11:54:59;;;;;;;;;;;17.30;99.90;;;;;;4963514;28;20445;-76
2022/09/15 11:57:29;;;;;;;;;;;17.20;99.90;;;;;;4965132;28;19945;-76
2022/09/15 12:00:11;;;;;;;;;;;17.30;99.90;;;;;;4964251;28;19933;-76
2022/09/15 12:02:55;;;;;;;;;;;17.30;99.90;;;;;;4963954;28;19930;-75
2022/09/15 12:05:22;;;;;;;;;;;17.40;99.90;;;;;;4964242;28;20439;-75
2022/09/15 12:07:57;;;;;;;;;;;17.40;99.90;;;;;;4964039;28;20462;-75
2022/09/15 12:10:24;;;;;;;;;;;17.40;99.90;;;;;;4963350;28;19933;-75
2022/09/15 12:12:51;;;;;;;;;;;17.30;99.90;;;;;;4963688;28;19992;-75
2022/09/15 12:15:18;;;;;;;;;;;17.20;99.90;;;;;;4963360;28;19926;-75
2022/09/15 12:17:50;;;;;;;;;;;17.10;99.90;;;;;;4963862;28;19934;-75
2022/09/15 12:20:36;;;;;;;;;;;17.10;99.90;;;;;;4964546;28;20391;-75
2022/09/15 12:23:01;;;;;;;;;;;17.00;99.90;;;;;;4964835;28;20205;-73
2022/09/15 12:25:31;;;;;;;;;;;17.00;99.90;;;;;;4974900;28;19965;-74
2022/09/15 12:28:15;;;;;;;;;;;17.10;99.90;;;;;;4963553;28;19949;-74
2022/09/15 12:30:41;;;;;;;;;;;17.10;99.90;;;;;;4977450;28;19949;-73
2022/09/15 12:33:26;;;;;;;;;;;17.10;99.90;;;;;;4982313;28;19933;-74
2022/09/15 12:35:51;;;;;;;;;;;17.10;99.90;;;;;;4970580;28;19958;-74
2022/09/15 12:38:18;;;;;;;;;;;17.10;99.90;;;;;;4979697;28;20320;-75
2022/09/15 12:40:43;;;;;;;;;;;17.10;99.90;;;;;;4976699;28;19926;-74
2022/09/15 12:43:12;;;;;;;;;;;17.10;99.90;;;;;;4967528;28;19926;-76
2022/09/15 12:45:39;;;;;;;;;;;17.10;99.90;;;;;;4984091;28;20051;-75
2022/09/15 12:48:13;;;;;;;;;;;17.20;99.90;;;;;;4988814;28;20338;-75
2022/09/15 12:50:50;;;;;;;;;;;17.20;99.90;;;;;;4991271;28;19921;-76
2022/09/15 12:53:23;;;;;;;;;;;17.30;99.90;;;;;;4990726;28;20324;-76
2022/09/15 12:55:51;;;;;;;;;;;17.30;99.90;;;;;;4976113;28;20513;-75
2022/09/15 12:58:37;;;;;;;;;;;17.30;99.90;;;;;;4993991;28;20368;-74
2022/09/15 13:01:18;;;;;;;;;;;17.20;99.90;;;;;;4990753;28;19925;-74
2022/09/15 13:03:44;;;;;;;;;;;17.00;99.90;;;;;;4984575;28;19930;-74
2022/09/15 13:06:09;;;;;;;;;;;16.70;99.90;;;;;;4987279;28;19925;-74
2022/09/15 13:08:37;;;;;;;;;;;16.60;99.90;;;;;;4990481;28;20087;-74
2022/09/15 13:11:06;;;;;;;;;;;16.50;99.90;;;;;;4983752;28;20017;-75
2022/09/15 13:13:45;;;;;;;;;;;16.30;99.90;;;;;;4976577;28;20404;-75
2022/09/15 13:16:39;;;;;;;;;;;16.30;99.90;;;;;;4978197;28;19929;-76
2022/09/15 13:19:14;;;;;;;;;;;16.30;99.90;;;;;;4963493;28;19937;-75
2022/09/15 13:21:41;;;;;;;;;;;16.30;99.90;;;;;;4991562;28;19941;-75
2022/09/15 13:24:11;;;;;;;;;;;16.30;99.90;;;;;;4991721;28;19979;-75
2022/09/15 13:26:37;;;;;;;;;;;16.40;99.90;;;;;;4983389;28;20392;-75
2022/09/15 13:29:05;;;;;;;;;;;16.40;99.90;;;;;;4985644;28;19921;-76
2022/09/15 13:31:33;;;;;;;;;;;16.40;99.90;;;;;;4991403;28;20380;-76
2022/09/15 13:34:02;;;;;;;;;;;16.40;99.90;;;;;;4992977;28;20147;-75
2022/09/15 13:36:33;;;;;;;;;;;16.40;99.90;;;;;;4971574;28;19925;-75
2022/09/15 13:39:04;;;;;;;;;;;16.40;99.90;;;;;;4986203;28;19976;-80
2022/09/15 13:41:45;;;;;;;;;;;16.50;99.90;;;;;;4988182;28;20117;-80
2022/09/15 13:44:29;;;;;;;;;;;16.50;99.90;;;;;;4970092;28;20052;-82
2022/09/15 13:47:01;;;;;;;;;;;16.50;99.90;;;;;;4984278;28;19926;-76
2022/09/15 13:49:31;;;;;;;;;;;16.60;99.90;;;;;;4985011;28;19924;-76
2022/09/15 13:52:07;;;;;;;;;;;16.60;99.90;;;;;;4975273;28;19925;-79
2022/09/15 13:54:33;;;;;;;;;;;16.60;99.90;;;;;;4992111;28;19921;-74
2022/09/15 13:57:00;;;;;;;;;;;16.60;99.90;;;;;;4992046;28;20283;-75
2022/09/15 13:59:31;;;;;;;;;;;16.60;99.90;;;;;;4997983;28;19984;-75
2022/09/15 14:01:57;;;;;;;;;;;16.60;99.90;;;;;;4977468;28;19926;-75
2022/09/15 14:04:24;;;;;;;;;;;16.40;99.90;;;;;;4981274;28;20002;-73
2022/09/15 14:06:54;;;;;;;;;;;16.20;99.90;;;;;;4993436;28;19930;-75
2022/09/15 14:09:22;;;;;;;;;;;15.90;99.90;;;;;;4974336;28;20340;-75
2022/09/15 14:11:50;;;;;;;;;;;15.80;99.90;;;;;;4983951;28;19926;-73
2022/09/15 14:14:26;;;;;;;;;;;15.70;99.90;;;;;;4980391;28;20346;-74
2022/09/15 14:16:53;;;;;;;;;;;15.70;99.90;;;;;;4975854;28;19926;-74
2022/09/15 14:19:34;;;;;;;;;;;15.70;99.90;;;;;;4982847;28;20412;-74
2022/09/15 14:22:01;;;;;;;;;;;15.80;99.90;;;;;;4985255;28;19980;-74
2022/09/15 14:24:28;;;;;;;;;;;15.80;99.90;;;;;;4986883;28;19926;-74
2022/09/15 14:26:55;;;;;;;;;;;15.80;99.90;;;;;;4984736;28;19926;-74
2022/09/15 14:29:23;;;;;;;;;;;15.90;99.90;;;;;;4986291;28;19925;-73